x

Cape Cod - 24 Nm East Of Provincetown, Ma (44018) Wave Buoy

12:50am - Tue 28th Jul 2015 All times are EDT. -4 hours from GMT.

  • Sig Wave height 3.0ft
  • Swell Direction
  • Peak Period 9s
  • Average Period 6s
  • Wind
    13mph
  • Sea Temp 67°f
  • Air Temp 68°f
  • Sea Pressure 1016.7mb
  • Cape Cod - 24 Nm East Of Provincetown, Ma
  • Cape Cod - 24 Nm East Of Provincetown, Ma

More Historic Weather Station data

Upgrade to MSW Pro to gain access to the past 30 days of data for over 8000 Wavebouys and Weather Stations around the globe.

Join Pro

Comparision Forecast

View Surf forecast
   
Tue 07/28 12:50am 3ft 9s 6s 13
mph
1016.7mb 67f 68f
Mon 07/27 11:50pm 3ft 9s 6s 9 11 mph 1017mb 67f 68f
10:50pm 3ft 9s 6s 9 11 mph 1016.8mb 67f 68f
9:50pm 3ft 9s 6s 11 13 mph 1016.7mb 67f 69f
8:50pm 3ft 8s 6s 11 13 mph 1016.5mb 67f 69f
7:50pm 2.5ft 10s 5s 11 13 mph 1016mb 67f 69f
6:50pm 3ft 9s 5s 13
mph
1016mb 67f 69f
5:50pm 2.5ft 9s 5s 13 16 mph 1015.8mb 67f 69f
4:50pm 2.5ft 11s 5s 11 13 mph 1016.5mb 68f 68f
3:50pm 2.5ft 8s 5s 9 11 mph 1016.7mb 68f 68f
2:50pm 2.5ft 8s 5s 9 11 mph 1016.8mb 68f 68f
1:50pm 2.5ft 8s 5s 4
mph
1017.6mb 68f 69f
12:50pm 2.5ft 8s 5s 7 9 mph 1017.6mb 67f 68f
11:50am 2.5ft 9s 5s 9
mph
1017.5mb 66f 68f
10:50am 2.5ft 11s 5s 9 11 mph 1017.5mb 66f 67f
9:50am 2.5ft 7s 5s 9 11 mph 1017.4mb 65f 67f
8:50am 2.5ft 4s 5s 11 13 mph 1017.3mb 65f 67f
7:50am 2.5ft 10s  -  11
mph
1017mb 65f 67f
6:50am 2.5ft 4s 5s 11
mph
1016.6mb 65f 67f
5:50am 2.5ft 11s 4s 11 13 mph 1016.5mb 66f 67f
4:50am 2.5ft 11s 4s 13 16 mph 1016.5mb 67f 68f
3:50am 2.5ft 4s 4s 13
mph
1016.1mb 67f 68f
2:50am 2.5ft 4s 4s 16 18 mph 1016.2mb 67f 68f
1:50am 2.5ft 4s 4s 16 18 mph 1016.2mb 67f 69f
12:50am 3ft 5s 4s 18 22 mph 1016.5mb 67f 68f
Sun 07/26 11:50pm 3ft 5s 5s 13 18 mph 1017.1mb 67f 68f
10:50pm 3.5ft 5s 5s 16 18 mph 1016.8mb 67f 68f
9:50pm 3.5ft 5s 5s 16 18 mph 1016.5mb 67f 67f
8:50pm 3.5ft 5s 5s 13 16 mph 1016.4mb 67f 67f
7:50pm 3.5ft 5s 5s 18 20 mph 1016.5mb 67f 67f
6:50pm 3.5ft 5s 4s 18 20 mph 1016.2mb 67f 67f
5:50pm 3ft 5s 4s 20 25 mph 1016.2mb 67f 66f
4:50pm 3.5ft 4s 4s 18 20 mph 1016.8mb 67f 66f
3:50pm 3ft 4s 4s 18 20 mph 1016.9mb 67f 66f
2:50pm 2.5ft 4s 4s 20 22 mph 1017mb 67f 66f
1:50pm 2.5ft 4s 4s 20 22 mph 1017.2mb 67f 65f
12:50pm 2.5ft 4s 4s 16 18 mph 1017.6mb 67f 65f
11:50am 2.5ft 4s 4s 13 16 mph 1018.3mb 67f 65f
10:50am 2.5ft 12s 4s 16 18 mph 1017.8mb 67f 65f
9:50am 2.5ft 11s 5s 13 16 mph 1017.9mb 67f 65f
8:50am 2.5ft 11s 5s 13 16 mph 1018mb 67f 64f
7:50am 2.5ft 11s 5s 16 18 mph 1017.3mb 67f 64f
6:50am 2.5ft 11s 4s 13 16 mph 1017.2mb 68f 65f
5:50am 2.5ft 11s 5s 11 13 mph 1017mb 69f 65f
4:50am 2.5ft 11s 5s 4
mph
1017.1mb 69f 67f
3:50am 2.5ft 12s 5s 4 7 mph 1016.9mb 69f 67f
2:50am 2ft 12s 5s 2 4 mph 1017.2mb 69f 66f
1:50am 2ft 11s 5s 4 7 mph 1017.4mb 69f 67f
12:50am 2ft 12s 6s  -  2 mph 1017.7mb 69f 66f
Sat 07/25 11:50pm 2ft 12s 5s 2 4 mph 1018mb 68f 66f
10:50pm 2.5ft 11s 5s 2 4 mph 1017.9mb 68f 65f
9:50pm 2.5ft 12s 5s  -  2 mph 1017.7mb 68f 65f
8:50pm 2.5ft 11s 5s  -  mph 1017.3mb 69f 65f
7:50pm 2.5ft 11s 5s 7 9 mph 1016.9mb 69f 65f
6:50pm 2.5ft 11s 5s 7
mph
1016.8mb 70f 65f
5:50pm 2.5ft 11s 5s 4 7 mph 1017.1mb 70f 65f
4:50pm 2.5ft 11s 5s 7
mph
1017.3mb 71f 65f
3:50pm 2.5ft 12s 5s 4 7 mph 1017mb 70f 65f
2:50pm 2.5ft 11s 5s 9 11 mph 1016.8mb 70f 65f
1:50pm 2.5ft 4s 4s 9 11 mph 1016.8mb 69f 64f
12:50pm 2.5ft 12s 4s 11 13 mph 1016.8mb 69f 65f
11:50am 2ft 11s 5s 11 13 mph 1016.9mb 69f 65f
10:50am 1.6ft 12s 7s 13 16 mph 1016.8mb 69f 66f
9:50am 2ft 8s 7s 11 13 mph 1016.1mb 69f 67f
8:50am 1.6ft 11s 7s 7
mph
1016mb 69f 67f
7:50am 1.6ft 7s 7s 4
mph
1015.6mb 69f 68f
6:50am 2ft 11s 8s 2
mph
1015.1mb 69f 68f
5:50am 2ft 8s 8s 4
mph
1014.5mb 69f 68f
4:50am 1.6ft 8s 7s 4 7 mph 1014mb 69f 68f
3:50am 1.6ft 11s 7s 2 4 mph 1013.8mb 69f 68f
2:50am 1.6ft 11s 7s 2
mph
1013.7mb 69f 68f
1:50am 1.3ft 8s 7s 2
mph
1013.7mb 69f 68f
12:50am 1.3ft 8s 7s 2
mph
1013.6mb 70f 68f
Fri 07/24 11:50pm 1.6ft 8s 7s 2
mph
1013.8mb 70f 68f
10:50pm 1.3ft 9s 6s 4
mph
1013.8mb 70f 68f
9:50pm 1.6ft 10s 6s 7 9 mph 1013.7mb 70f 68f
8:50pm 1.6ft 8s 6s 2
mph
1013.3mb 70f 68f
7:50pm 1.6ft 8s 6s 7 9 mph 1013.5mb 70f 68f
6:50pm 1.6ft 8s 6s 2
mph
1012.9mb 70f 68f
5:50pm 1.6ft 8s 6s 2 4 mph 1012.3mb 71f 69f
4:50pm 1.6ft 8s 5s 2 4 mph 1012mb 70f 68f
3:50pm 1.6ft 7s 5s 2 4 mph 1012.2mb 70f 68f
2:50pm 1.6ft 8s 5s 4 7 mph 1012.2mb 70f 67f
1:50pm 2ft 8s 5s 9 11 mph 1012.6mb 69f 67f
12:50pm 1.6ft 9s 5s 13 16 mph 1012.6mb 69f 67f
11:50am 2ft 8s 4s 7
mph
1012.6mb 69f 67f
10:50am 2ft 9s 5s 11 13 mph 1012.4mb 69f 67f
9:50am 1.6ft 8s 5s 13 16 mph 1012.4mb 69f 68f
8:50am 2ft 8s 6s 11 13 mph 1012.3mb 69f 68f
7:50am 1.6ft 9s 6s 11
mph
1012.1mb 69f 68f
6:50am 2ft 9s 7s 13 16 mph 1011.9mb 69f 68f